Wichita Mid Continent Airport
KICT : now visible

Aeroporto :











RITROVATECI SU...

 
LOGIN :

Iscrizione | Disclaimer

   EN    FR    IT 

 









Sommario :    VFR   VFR Marginale   IFR   IFR Intensivo   IFR Molto Intensivo
Visibilità : 
Base nubi : 
>= 8 km
>= 3000ft
5 / 8 km
1000 / 3000 ft
1500m / 5 km
500 / 1000 ft
800 / 1500m
200 / 500 ft
< 800m
< 200 ft
Simboli :   Temporali  Nebbia  Neve Forte  Precipitazioni Forti  Vento > 20 kt







- Altitudine del aeroporto : 1333 ft
- Codice IATA : ICT


KICT - Wichita Mid Continent

ULTIMO METAR :
  • 211053Z 12011KT 8SM TSRA BKN006CB BKN012 OVC023 14/13 A2958 RMK AO2 LTG DSNT ALQDS SLP015 OCNL LTGICCC ALQDS TS ALQDS MOV NE P0033 T01390128

METARs OBSOLETI :
  • 210953Z 13012KT 4SM +TSRA BR BKN006CB BKN044 OVC060 13/12 A2962 RMK AO2 LTG DSNT ALQDS SLP026 FRQ LTGICCC ALQDS TS ALQDS MOV NE P0040 T01330122
  • 210853Z 13015G23KT 5SM TSRA BR BKN008CB OVC020 13/12 A2963 RMK AO2 LTG DSNT ALQDS SLP031 FRQ LTGICCC ALQDS TS ALQDS MOV NE P0033 60034 T01330117 53003
  • 210753Z 20007G15KT 10SM TSRA BKN007CB OVC050 13/12 A2963 RMK AO2 SLP030 RAB31 TSB16 OCNL LTGICCC VC S-SW TS VC S-SW MOV NE P0001 T01330117

TAF KICT
Valido dal 21 a 09 ore il 22 a 06 ore UTC


210902Z 2109/2206 13016G23KT 5SM TSRA BR BKN008CB OVC020
TEMPO 2109/2112 VRB20G35KT 3SM +TSRA BR SCT008 OVC020CB
FM211200 16017KT 6SM SHRA BR VCTS OVC010CB
FM211700 18021G29KT 6SM -SHRA BKN015
FM211900 19026G35KT 6SM -SHRA VCTS BKN020CB
FM220300 21018KT P6SM SCT250
FIR KZKC / America del Nord



MetMap, La meteo Aeronautica in un colpo d'occhio ! - Copyright ORBIFLY Dicembre 2007 - Disclaimer

ORBIFLY MET'MAP TEAM :

Programmazione e sviluppo : Alexandra Zaïnal
Concezione e sviluppo : Baudouin d'Aumeries
Co-Programmazione e sviluppo : Marc-Olivier Méhu
Supporto tecnico e logistico : Manuel Goepfert
Aiuto per la traduzione : Arnaldo La Scala

Contatto : metmap@orbifly.com




FONTI E CREDITI :

   NOAA       Earth
Advisory